createdAt,value
2023-06-28T00:00:04.449Z,21.17
2023-06-28T00:03:11.202Z,21.16
2023-06-28T00:06:14.038Z,21.15
2023-06-28T00:09:16.742Z,21.17
2023-06-28T00:12:22.364Z,21.15
2023-06-28T00:15:25.120Z,21.16
2023-06-28T00:18:31.474Z,21.14
2023-06-28T00:21:34.508Z,21.09
2023-06-28T00:24:37.240Z,21.05
2023-06-28T00:27:41.549Z,20.99
2023-06-28T00:30:44.480Z,20.95
2023-06-28T00:33:47.774Z,20.92
2023-06-28T00:36:51.537Z,20.90
2023-06-28T00:39:55.972Z,20.87
2023-06-28T00:43:00.040Z,20.83
2023-06-28T00:46:03.390Z,20.79
2023-06-28T00:49:13.878Z,20.73
2023-06-28T00:52:16.584Z,20.62
2023-06-28T00:55:22.199Z,20.60
2023-06-28T00:58:26.756Z,20.52
2023-06-28T01:01:30.032Z,20.45
2023-06-28T01:04:41.604Z,20.35
2023-06-28T01:07:46.017Z,20.29
2023-06-28T01:10:50.429Z,20.19
2023-06-28T01:13:54.742Z,20.11
2023-06-28T01:16:57.550Z,20.01
2023-06-28T01:20:01.066Z,19.94
2023-06-28T01:23:06.514Z,19.85
2023-06-28T01:26:10.313Z,19.74
2023-06-28T01:29:13.275Z,19.77
2023-06-28T01:32:18.311Z,19.74
2023-06-28T01:35:21.036Z,19.73
2023-06-28T01:38:27.154Z,19.71
2023-06-28T01:41:30.287Z,19.70
2023-06-28T01:44:34.660Z,19.71
2023-06-28T01:47:37.741Z,19.70
2023-06-28T01:50:40.995Z,19.69
2023-06-28T01:53:45.302Z,19.68
2023-06-28T01:56:48.099Z,19.69
2023-06-28T01:59:50.842Z,19.70
2023-06-28T02:02:54.761Z,19.71
2023-06-28T02:05:57.824Z,19.73
2023-06-28T02:09:02.152Z,19.77
2023-06-28T02:12:05.352Z,19.76
2023-06-28T02:15:09.322Z,19.76
2023-06-28T02:18:12.001Z,19.76
2023-06-28T02:21:15.457Z,19.79
2023-06-28T02:24:21.311Z,19.77
2023-06-28T02:27:24.026Z,19.75
2023-06-28T02:30:26.842Z,19.74
2023-06-28T02:33:29.562Z,19.73
2023-06-28T02:36:32.814Z,19.74
2023-06-28T02:39:36.891Z,19.71
2023-06-28T02:42:39.608Z,19.69
2023-06-28T02:45:42.304Z,19.67
2023-06-28T02:48:45.044Z,19.66
2023-06-28T02:51:47.742Z,19.64
2023-06-28T02:54:51.799Z,19.65
2023-06-28T02:57:55.503Z,19.67
2023-06-28T03:00:58.646Z,19.65
2023-06-28T03:04:01.669Z,19.66
2023-06-28T03:07:04.819Z,19.64
2023-06-28T03:10:10.067Z,19.63
2023-06-28T03:13:12.811Z,19.64
2023-06-28T03:16:16.784Z,19.65
2023-06-28T03:19:19.493Z,19.65
2023-06-28T03:22:28.379Z,19.64
2023-06-28T03:25:32.632Z,19.63
2023-06-28T03:28:35.533Z,19.68
2023-06-28T03:31:38.303Z,19.63
2023-06-28T03:34:41.035Z,19.55
2023-06-28T03:37:50.975Z,19.55
2023-06-28T03:40:57.591Z,19.56
2023-06-28T03:44:00.276Z,19.56
2023-06-28T03:47:07.623Z,19.56
2023-06-28T03:50:11.058Z,19.58
2023-06-28T03:53:13.753Z,19.57
2023-06-28T03:56:17.962Z,19.56
2023-06-28T03:59:21.632Z,19.59
2023-06-28T04:02:24.331Z,19.61
2023-06-28T04:05:27.274Z,19.63
2023-06-28T04:08:29.990Z,19.63
2023-06-28T04:11:33.977Z,19.63
2023-06-28T04:14:36.924Z,19.66
2023-06-28T04:17:39.697Z,19.69
2023-06-28T04:20:43.350Z,19.69
2023-06-28T04:23:46.547Z,19.74
2023-06-28T04:26:50.586Z,19.76
2023-06-28T04:29:53.297Z,19.81
2023-06-28T04:32:55.972Z,19.64
2023-06-28T04:36:02.786Z,19.87
2023-06-28T04:39:05.524Z,19.91
2023-06-28T04:42:09.667Z,19.96
2023-06-28T04:45:12.674Z,20.05
2023-06-28T04:48:15.382Z,20.10
2023-06-28T04:51:18.672Z,20.11
2023-06-28T04:54:21.372Z,20.09
2023-06-28T04:57:25.685Z,20.10
2023-06-28T05:00:28.645Z,20.09
2023-06-28T05:03:33.584Z,20.10
2023-06-28T05:06:37.208Z,20.13
2023-06-28T05:09:40.677Z,20.08
2023-06-28T05:12:44.711Z,20.08
2023-06-28T05:15:47.985Z,20.09
2023-06-28T05:18:50.724Z,20.09
2023-06-28T05:21:55.158Z,20.08
2023-06-28T05:24:57.955Z,20.14
2023-06-28T05:28:01.996Z,20.13
2023-06-28T05:31:04.769Z,20.27
2023-06-28T05:34:07.559Z,20.44
2023-06-28T05:37:10.266Z,20.55
2023-06-28T05:40:14.106Z,20.58
2023-06-28T05:43:18.122Z,20.66
2023-06-28T05:46:20.876Z,20.71
2023-06-28T05:49:26.461Z,20.84
2023-06-28T05:52:29.187Z,20.91
2023-06-28T05:55:32.067Z,21.03
2023-06-28T05:58:36.515Z,21.14
2023-06-28T06:01:39.274Z,21.13
2023-06-28T06:04:41.998Z,21.18
2023-06-28T06:07:44.742Z,21.19
2023-06-28T06:10:47.475Z,21.25
2023-06-28T06:13:51.569Z,21.28
2023-06-28T06:16:55.557Z,21.28
2023-06-28T06:19:58.295Z,21.27
2023-06-28T06:23:01.044Z,21.25
2023-06-28T06:26:03.864Z,21.23
2023-06-28T06:29:08.263Z,21.19
2023-06-28T06:32:11.754Z,21.19
2023-06-28T06:35:15.762Z,21.16
2023-06-28T06:38:18.516Z,21.07
2023-06-28T06:41:25.047Z,21.02
2023-06-28T06:44:32.265Z,21.03
2023-06-28T06:47:36.831Z,21.05
2023-06-28T06:50:39.779Z,21.10
2023-06-28T06:53:42.724Z,21.16
2023-06-28T06:56:45.405Z,21.19
2023-06-28T06:59:49.431Z,21.30
2023-06-28T07:02:52.301Z,21.48
2023-06-28T07:05:55.036Z,21.67
2023-06-28T07:08:59.008Z,21.90
2023-06-28T07:12:01.750Z,22.16
2023-06-28T07:15:06.969Z,22.38
2023-06-28T07:18:09.665Z,22.67
2023-06-28T07:21:15.912Z,22.91
2023-06-28T07:24:18.595Z,23.06
2023-06-28T07:27:24.302Z,23.24
2023-06-28T07:30:32.098Z,23.48
2023-06-28T07:33:35.431Z,23.71
2023-06-28T07:36:38.188Z,23.82
2023-06-28T07:39:40.966Z,23.85
2023-06-28T07:42:43.843Z,24.04
2023-06-28T07:45:48.331Z,24.24
2023-06-28T07:48:51.907Z,24.40
2023-06-28T07:51:54.670Z,24.77
2023-06-28T07:54:57.351Z,25.30
2023-06-28T07:58:00.217Z,26.15
2023-06-28T08:01:08.227Z,26.90
2023-06-28T08:04:13.367Z,27.20
2023-06-28T08:07:16.704Z,27.22
2023-06-28T08:10:19.458Z,27.19
2023-06-28T08:13:24.903Z,27.37
2023-06-28T08:16:29.093Z,27.50
2023-06-28T08:19:31.834Z,27.41
2023-06-28T08:22:35.282Z,27.53
2023-06-28T08:25:38.134Z,27.43
2023-06-28T08:28:54.469Z,27.25
2023-06-28T08:32:03.269Z,27.01
2023-06-28T08:35:09.538Z,26.73
2023-06-28T08:38:12.760Z,26.56
2023-06-28T08:41:18.484Z,26.43
2023-06-28T08:44:24.862Z,26.32
2023-06-28T08:47:31.878Z,26.06
2023-06-28T08:50:35.190Z,25.90
2023-06-28T08:53:45.152Z,25.74
2023-06-28T08:57:05.123Z,25.42
2023-06-28T09:00:14.789Z,25.13
2023-06-28T09:03:20.090Z,25.12
2023-06-28T09:06:23.779Z,25.17
2023-06-28T09:09:29.710Z,25.41
2023-06-28T09:12:33.348Z,25.50
2023-06-28T09:15:39.117Z,25.79
2023-06-28T09:18:43.291Z,25.78
2023-06-28T09:21:46.852Z,25.88
2023-06-28T09:24:51.191Z,25.96
2023-06-28T09:27:54.867Z,26.32
2023-06-28T09:30:58.597Z,26.74
2023-06-28T09:34:05.146Z,26.90
2023-06-28T09:37:08.181Z,27.07
2023-06-28T09:40:17.008Z,27.03
2023-06-28T09:43:19.721Z,27.07
2023-06-28T09:46:23.446Z,27.19
2023-06-28T09:49:28.028Z,27.35
2023-06-28T09:52:37.242Z,27.67
2023-06-28T09:55:41.582Z,27.99
2023-06-28T09:58:47.331Z,28.13
2023-06-28T10:01:53.968Z,28.43
2023-06-28T10:04:58.717Z,28.53
2023-06-28T10:08:13.503Z,28.54
2023-06-28T10:11:17.803Z,28.58
2023-06-28T10:14:22.658Z,28.45
2023-06-28T10:17:26.299Z,28.26
2023-06-28T10:20:31.137Z,28.19
2023-06-28T10:23:36.732Z,28.24
2023-06-28T10:26:39.879Z,28.43
2023-06-28T10:29:45.239Z,28.65
2023-06-28T10:32:48.371Z,28.59
2023-06-28T10:35:54.030Z,28.65
2023-06-28T10:38:56.727Z,28.65
2023-06-28T10:42:00.274Z,28.57
2023-06-28T10:45:04.364Z,28.58
2023-06-28T10:48:09.800Z,28.58
2023-06-28T10:51:21.814Z,28.32
2023-06-28T10:54:24.774Z,28.18
2023-06-28T10:57:38.801Z,28.37
2023-06-28T11:00:46.855Z,28.46
2023-06-28T11:03:49.626Z,28.37
2023-06-28T11:07:12.060Z,28.40
2023-06-28T11:10:18.441Z,28.26
2023-06-28T11:13:33.898Z,28.33
2023-06-28T11:16:37.818Z,28.43
2023-06-28T11:19:42.001Z,28.48
2023-06-28T11:22:53.341Z,28.18
2023-06-28T11:25:57.863Z,28.31
2023-06-28T11:29:00.665Z,28.39
2023-06-28T11:32:04.116Z,28.54
2023-06-28T11:35:10.180Z,28.56
2023-06-28T11:38:16.717Z,28.56
2023-06-28T11:41:19.637Z,28.17
2023-06-28T11:44:22.307Z,28.10
2023-06-28T11:47:28.471Z,28.09
2023-06-28T11:50:31.874Z,28.08
2023-06-28T11:53:35.975Z,27.90
2023-06-28T11:56:40.379Z,27.94
2023-06-28T11:59:51.921Z,28.02
2023-06-28T12:02:54.728Z,28.04
2023-06-28T12:05:58.045Z,28.17
2023-06-28T12:09:02.186Z,28.46
2023-06-28T12:12:06.857Z,28.53
2023-06-28T12:15:14.789Z,28.61
2023-06-28T12:18:20.666Z,28.60
2023-06-28T12:21:23.714Z,28.53
2023-06-28T12:24:28.060Z,28.70
2023-06-28T12:27:32.566Z,28.90
2023-06-28T12:30:35.379Z,29.19
2023-06-28T12:33:38.228Z,29.36
2023-06-28T12:36:43.723Z,29.29
2023-06-28T12:39:48.437Z,29.26
2023-06-28T12:43:21.451Z,29.08
2023-06-28T12:46:24.182Z,28.80
2023-06-28T12:49:41.202Z,28.70
2023-06-28T12:52:43.984Z,28.66
2023-06-28T12:55:50.404Z,28.67
2023-06-28T12:58:53.082Z,28.66
2023-06-28T13:01:55.884Z,28.58
2023-06-28T13:04:58.688Z,28.64
2023-06-28T13:08:04.463Z,28.72
2023-06-28T13:11:16.339Z,28.90
2023-06-28T13:14:21.186Z,28.88
2023-06-28T13:17:24.198Z,28.74
2023-06-28T13:20:28.943Z,28.49
2023-06-28T13:23:33.925Z,28.26
2023-06-28T13:26:37.998Z,28.00
2023-06-28T13:29:40.648Z,27.73
2023-06-28T13:32:46.618Z,27.34
2023-06-28T13:35:49.441Z,27.48
2023-06-28T13:38:52.309Z,27.40
2023-06-28T13:41:56.488Z,27.39
2023-06-28T13:44:59.269Z,27.28
2023-06-28T13:48:02.331Z,27.30
2023-06-28T13:51:05.391Z,27.62
2023-06-28T13:54:08.140Z,28.03
2023-06-28T13:57:15.373Z,28.41
2023-06-28T14:00:18.504Z,28.50
2023-06-28T14:03:21.304Z,28.79
2023-06-28T14:06:24.158Z,28.88
2023-06-28T14:09:27.542Z,28.58
2023-06-28T14:12:31.773Z,28.18
2023-06-28T14:15:34.631Z,27.85
2023-06-28T14:18:37.355Z,27.67
2023-06-28T14:21:40.031Z,27.59
2023-06-28T14:24:42.756Z,27.60
2023-06-28T14:27:47.127Z,27.59
2023-06-28T14:30:49.795Z,27.83
2023-06-28T14:33:52.548Z,27.99
2023-06-28T14:36:55.247Z,28.26
2023-06-28T14:39:58.007Z,28.29
2023-06-28T14:43:02.019Z,28.09
2023-06-28T14:46:04.785Z,27.93
2023-06-28T14:49:08.347Z,27.82
2023-06-28T14:52:11.110Z,27.77
2023-06-28T14:55:13.822Z,27.63
2023-06-28T14:58:18.134Z,27.52
2023-06-28T15:01:21.405Z,27.37
2023-06-28T15:04:24.162Z,27.15
2023-06-28T15:07:27.201Z,26.98
2023-06-28T15:10:29.985Z,26.73
2023-06-28T15:13:34.025Z,26.57
2023-06-28T15:16:37.469Z,26.48
2023-06-28T15:19:40.362Z,26.43
2023-06-28T15:22:43.031Z,26.41
2023-06-28T15:25:45.995Z,26.40
2023-06-28T15:28:50.164Z,26.46
2023-06-28T15:31:52.854Z,26.62
2023-06-28T15:34:55.565Z,26.71
2023-06-28T15:37:58.656Z,26.69
2023-06-28T15:41:02.317Z,26.70
2023-06-28T15:44:06.534Z,26.70
2023-06-28T15:47:09.791Z,26.65
2023-06-28T15:50:12.789Z,26.66
2023-06-28T15:53:15.486Z,26.69
2023-06-28T15:56:18.130Z,26.78
2023-06-28T15:59:22.426Z,26.96
2023-06-28T16:02:25.302Z,27.05
2023-06-28T16:05:28.307Z,27.15
2023-06-28T16:08:31.231Z,27.30
2023-06-28T16:11:34.923Z,27.44
2023-06-28T16:14:39.501Z,27.54
2023-06-28T16:17:43.790Z,27.58
2023-06-28T16:20:46.673Z,27.56
2023-06-28T16:23:49.462Z,27.51
2023-06-28T16:26:52.558Z,27.23
2023-06-28T16:29:57.456Z,27.29
2023-06-28T16:33:00.366Z,27.26
2023-06-28T16:36:04.364Z,27.23
2023-06-28T16:39:07.153Z,27.22
2023-06-28T16:42:10.342Z,27.33
2023-06-28T16:45:14.603Z,27.37
2023-06-28T16:48:17.646Z,27.46
2023-06-28T16:51:21.117Z,27.43
2023-06-28T16:54:25.864Z,27.38
2023-06-28T16:57:28.895Z,27.31
2023-06-28T17:00:33.239Z,27.32
2023-06-28T17:03:40.306Z,27.30
2023-06-28T17:06:43.051Z,27.24
2023-06-28T17:09:46.088Z,27.22
2023-06-28T17:12:48.981Z,27.11
2023-06-28T17:15:53.619Z,26.93
2023-06-28T17:18:56.535Z,26.78
2023-06-28T17:21:59.252Z,26.67
2023-06-28T17:25:02.086Z,26.59
2023-06-28T17:28:05.267Z,26.53
2023-06-28T17:31:09.366Z,26.50
2023-06-28T17:34:12.056Z,26.32
2023-06-28T17:37:14.816Z,26.28
2023-06-28T17:40:17.530Z,26.25
2023-06-28T17:43:20.446Z,26.17
2023-06-28T17:46:24.480Z,26.11
2023-06-28T17:49:27.208Z,26.01
2023-06-28T17:52:29.858Z,25.92
2023-06-28T17:55:34.761Z,25.89
2023-06-28T17:58:38.552Z,25.89
2023-06-28T18:01:42.709Z,25.79
2023-06-28T18:04:45.449Z,25.69
2023-06-28T18:07:50.284Z,25.67
2023-06-28T18:10:54.434Z,25.54
2023-06-28T18:13:57.111Z,25.44
2023-06-28T18:17:02.028Z,25.41
2023-06-28T18:20:05.639Z,25.31
2023-06-28T18:23:08.343Z,25.18
2023-06-28T18:26:11.023Z,25.15
2023-06-28T18:29:13.702Z,25.04
2023-06-28T18:32:17.734Z,24.99
2023-06-28T18:35:20.438Z,24.81
2023-06-28T18:38:25.562Z,24.65
2023-06-28T18:41:30.865Z,24.63
2023-06-28T18:44:44.279Z,24.56
2023-06-28T18:47:48.610Z,24.47
2023-06-28T18:50:54.542Z,24.41
2023-06-28T18:53:57.754Z,24.36
2023-06-28T18:57:00.460Z,24.19
2023-06-28T19:00:06.643Z,24.07
2023-06-28T19:03:13.126Z,23.90
2023-06-28T19:06:15.952Z,23.76
2023-06-28T19:09:18.649Z,23.51
2023-06-28T19:12:21.351Z,23.39
2023-06-28T19:15:24.730Z,23.26
2023-06-28T19:18:29.260Z,23.05
2023-06-28T19:21:32.241Z,23.09
2023-06-28T19:24:34.986Z,22.97
2023-06-28T19:27:37.720Z,22.94
2023-06-28T19:30:40.630Z,22.90
2023-06-28T19:33:44.848Z,22.86
2023-06-28T19:41:04.726Z,22.72
2023-06-28T19:44:07.567Z,22.68
2023-06-28T19:47:10.267Z,22.61
2023-06-28T19:50:14.353Z,22.55
2023-06-28T19:53:17.024Z,22.49
2023-06-28T19:56:20.954Z,22.44
2023-06-28T19:59:23.709Z,22.40
2023-06-28T20:02:26.508Z,22.32
2023-06-28T20:05:30.653Z,22.25
2023-06-28T20:08:33.889Z,22.16
2023-06-28T20:11:36.713Z,22.07
2023-06-28T20:14:39.552Z,21.99
2023-06-28T20:17:42.288Z,21.94
2023-06-28T20:20:47.007Z,21.87
2023-06-28T20:23:50.023Z,21.81
2023-06-28T20:26:53.872Z,21.74
2023-06-28T20:29:57.074Z,21.66
2023-06-28T20:32:59.790Z,21.60
2023-06-28T20:36:04.390Z,21.54
2023-06-28T20:39:07.093Z,21.45
2023-06-28T20:42:10.108Z,21.40
2023-06-28T20:45:12.826Z,21.33
2023-06-28T20:48:15.640Z,21.27
2023-06-28T20:51:21.092Z,20.99
2023-06-28T20:54:23.878Z,21.13
2023-06-28T20:57:26.952Z,21.07
2023-06-28T21:00:29.765Z,20.98
2023-06-28T21:03:32.614Z,20.90
2023-06-28T21:06:36.701Z,20.85
2023-06-28T21:09:43.927Z,20.75
2023-06-28T21:12:46.726Z,20.67
2023-06-28T21:15:49.682Z,20.59
2023-06-28T21:18:52.861Z,20.56
2023-06-28T21:21:56.978Z,20.49
2023-06-28T21:25:00.376Z,20.48
2023-06-28T21:28:03.928Z,20.41
2023-06-28T21:31:06.751Z,20.35
2023-06-28T21:34:09.517Z,20.32
2023-06-28T21:37:13.869Z,20.26
2023-06-28T21:40:16.692Z,20.22
2023-06-28T21:43:19.825Z,20.12
2023-06-28T21:46:22.606Z,20.06
2023-06-28T21:49:25.465Z,19.99
2023-06-28T21:52:29.533Z,19.93
2023-06-28T21:55:32.194Z,19.87
2023-06-28T21:58:37.689Z,19.83
2023-06-28T22:01:40.612Z,19.78
2023-06-28T22:04:43.434Z,19.72
2023-06-28T22:07:50.129Z,19.66
2023-06-28T22:10:55.650Z,19.60
2023-06-28T22:14:04.945Z,19.56
2023-06-28T22:17:07.729Z,19.53
2023-06-28T22:20:12.111Z,19.49
2023-06-28T22:23:17.458Z,19.43
2023-06-28T22:26:22.173Z,19.37
2023-06-28T22:29:24.913Z,19.35
2023-06-28T22:32:27.684Z,19.31
2023-06-28T22:35:30.399Z,19.29
2023-06-28T22:38:47.748Z,19.24
2023-06-28T22:41:54.403Z,19.20
2023-06-28T22:44:58.038Z,19.16
2023-06-28T22:48:03.444Z,19.12
2023-06-28T22:51:06.979Z,19.04
2023-06-28T22:54:15.276Z,18.98
2023-06-28T22:57:18.017Z,18.96
2023-06-28T23:00:20.897Z,18.90
2023-06-28T23:03:25.354Z,18.88
2023-06-28T23:06:28.320Z,18.82
2023-06-28T23:09:32.363Z,18.79
2023-06-28T23:12:38.340Z,18.74
2023-06-28T23:15:41.242Z,18.68
2023-06-28T23:18:48.283Z,18.63
2023-06-28T23:21:50.944Z,18.58
2023-06-28T23:24:55.550Z,18.51
2023-06-28T23:27:58.762Z,18.46
2023-06-28T23:31:02.156Z,18.41
2023-06-28T23:34:05.037Z,18.37
2023-06-28T23:37:08.415Z,18.34
2023-06-28T23:40:14.154Z,18.28
2023-06-28T23:43:17.269Z,18.26
2023-06-28T23:46:19.909Z,18.22
2023-06-28T23:49:24.095Z,18.18
2023-06-28T23:52:30.245Z,18.12
2023-06-28T23:55:35.194Z,18.09
2023-06-28T23:58:38.806Z,18.07
